createdAt,value
2023-01-07T00:01:44.518Z,8.40
2023-01-07T00:04:14.712Z,8.40
2023-01-07T00:06:47.193Z,8.50
2023-01-07T00:09:17.324Z,8.40
2023-01-07T00:11:47.424Z,8.40
2023-01-07T00:14:15.884Z,8.40
2023-01-07T00:16:44.315Z,8.40
2023-01-07T00:19:14.877Z,8.40
2023-01-07T00:21:44.368Z,8.40
2023-01-07T00:24:13.005Z,8.40
2023-01-07T00:26:41.510Z,8.30
2023-01-07T00:29:10.282Z,8.30
2023-01-07T00:31:40.289Z,8.40
2023-01-07T00:34:09.438Z,8.30
2023-01-07T00:36:43.685Z,8.10
2023-01-07T00:39:15.634Z,8.20
2023-01-07T00:42:06.293Z,8.30
2023-01-07T00:44:34.528Z,8.20
2023-01-07T00:47:02.783Z,8.20
2023-01-07T00:49:30.637Z,8.30
2023-01-07T00:51:58.531Z,8.30
2023-01-07T00:54:28.008Z,8.30
2023-01-07T00:56:56.340Z,8.30
2023-01-07T00:59:24.291Z,8.40
2023-01-07T01:01:52.529Z,8.30
2023-01-07T01:04:20.478Z,8.40
2023-01-07T01:06:48.415Z,8.30
2023-01-07T01:09:16.297Z,8.30
2023-01-07T01:11:45.529Z,8.30
2023-01-07T01:14:13.406Z,8.30
2023-01-07T01:16:41.364Z,8.20
2023-01-07T01:19:09.254Z,8.20
2023-01-07T01:21:37.118Z,8.20
2023-01-07T01:24:05.289Z,8.20
2023-01-07T01:26:33.123Z,8.20
2023-01-07T01:29:02.350Z,8.10
2023-01-07T01:31:32.022Z,8.00
2023-01-07T01:34:00.766Z,8.00
2023-01-07T01:36:28.692Z,8.10
2023-01-07T01:38:59.429Z,8.10
2023-01-07T01:41:31.193Z,8.20
2023-01-07T01:44:01.800Z,8.30
2023-01-07T01:46:36.151Z,8.30
2023-01-07T01:49:12.350Z,8.20
2023-01-07T01:51:43.340Z,8.20
2023-01-07T01:54:15.645Z,8.10
2023-01-07T01:56:51.240Z,8.00
2023-01-07T01:59:25.427Z,8.00
2023-01-07T02:01:57.306Z,8.00
2023-01-07T02:04:27.955Z,8.10
2023-01-07T02:06:59.841Z,8.10
2023-01-07T02:09:29.780Z,8.10
2023-01-07T02:12:09.824Z,8.20
2023-01-07T02:14:55.817Z,8.20
2023-01-07T02:17:35.147Z,8.10
2023-01-07T02:20:19.278Z,8.00
2023-01-07T02:23:25.672Z,7.90
2023-01-07T02:26:27.477Z,7.80
2023-01-07T02:29:27.511Z,7.70
2023-01-07T02:32:26.230Z,7.80
2023-01-07T02:35:05.718Z,7.80
2023-01-07T02:37:43.847Z,7.90
2023-01-07T02:40:18.990Z,8.00
2023-01-07T02:42:59.886Z,8.00
2023-01-07T02:45:30.400Z,7.90
2023-01-07T02:48:04.214Z,7.80
2023-01-07T02:50:32.233Z,7.80
2023-01-07T02:53:00.163Z,7.80
2023-01-07T02:55:40.234Z,7.90
2023-01-07T02:58:33.990Z,7.90
2023-01-07T03:01:24.429Z,7.90
2023-01-07T03:04:06.872Z,7.90
2023-01-07T03:06:54.410Z,7.90
2023-01-07T03:09:31.670Z,7.90
2023-01-07T03:12:06.572Z,8.00
2023-01-07T03:14:39.763Z,7.90
2023-01-07T03:17:09.820Z,7.90
2023-01-07T03:19:42.687Z,7.90
2023-01-07T03:22:11.967Z,7.90
2023-01-07T03:24:41.272Z,8.00
2023-01-07T03:27:10.237Z,7.90
2023-01-07T03:29:38.258Z,7.80
2023-01-07T03:32:12.318Z,7.70
2023-01-07T03:34:42.253Z,7.60
2023-01-07T03:37:12.851Z,7.60
2023-01-07T03:39:42.390Z,7.60
2023-01-07T03:42:29.511Z,7.60
2023-01-07T03:44:58.733Z,7.50
2023-01-07T03:47:29.258Z,7.60
2023-01-07T03:49:58.604Z,7.60
2023-01-07T03:52:26.528Z,7.50
2023-01-07T03:54:54.585Z,7.50
2023-01-07T03:57:22.750Z,7.40
2023-01-07T03:59:50.631Z,7.30
2023-01-07T04:02:18.624Z,7.20
2023-01-07T04:04:46.682Z,7.20
2023-01-07T04:07:16.159Z,7.20
2023-01-07T04:09:47.080Z,7.20
2023-01-07T04:12:15.179Z,7.20
2023-01-07T04:14:43.125Z,7.10
2023-01-07T04:17:11.284Z,7.10
2023-01-07T04:19:39.980Z,7.10
2023-01-07T04:22:08.360Z,7.00
2023-01-07T04:24:37.740Z,7.00
2023-01-07T04:27:05.992Z,7.00
2023-01-07T04:29:33.973Z,7.00
2023-01-07T04:32:02.741Z,6.90
2023-01-07T04:34:30.800Z,6.80
2023-01-07T04:36:58.747Z,6.80
2023-01-07T04:39:26.753Z,6.70
2023-01-07T04:41:56.000Z,6.70
2023-01-07T04:44:23.978Z,6.60
2023-01-07T04:46:51.870Z,6.60
2023-01-07T04:49:21.028Z,6.60
2023-01-07T04:51:49.462Z,6.50
2023-01-07T04:54:18.158Z,6.50
2023-01-07T04:56:46.068Z,6.50
2023-01-07T04:59:15.709Z,6.50
2023-01-07T05:01:45.208Z,6.40
2023-01-07T05:04:13.885Z,6.40
2023-01-07T05:06:42.681Z,6.30
2023-01-07T05:09:12.447Z,6.20
2023-01-07T05:11:40.440Z,6.30
2023-01-07T05:14:11.704Z,6.20
2023-01-07T05:16:41.796Z,6.10
2023-01-07T05:19:12.307Z,6.00
2023-01-07T05:21:44.772Z,5.90
2023-01-07T05:24:14.070Z,5.80
2023-01-07T05:26:42.229Z,5.80
2023-01-07T05:29:11.116Z,5.70
2023-01-07T05:31:42.049Z,5.70
2023-01-07T05:34:10.104Z,5.50
2023-01-07T05:36:38.998Z,5.40
2023-01-07T05:39:07.690Z,5.30
2023-01-07T05:41:35.607Z,5.20
2023-01-07T05:44:03.612Z,5.10
2023-01-07T05:46:31.509Z,5.00
2023-01-07T05:49:00.734Z,5.00
2023-01-07T05:51:28.588Z,5.00
2023-01-07T05:53:56.511Z,5.00
2023-01-07T05:56:24.369Z,5.00
2023-01-07T05:58:52.268Z,4.90
2023-01-07T06:01:20.202Z,4.80
2023-01-07T06:03:48.151Z,4.60
2023-01-07T06:06:17.772Z,4.40
2023-01-07T06:08:45.761Z,4.40
2023-01-07T06:11:13.639Z,4.30
2023-01-07T06:13:41.497Z,4.20
2023-01-07T06:16:27.837Z,4.00
2023-01-07T06:18:55.707Z,4.10
2023-01-07T06:21:24.922Z,4.20
2023-01-07T06:23:52.796Z,4.20
2023-01-07T06:26:20.755Z,4.10
2023-01-07T06:28:48.605Z,3.90
2023-01-07T06:31:16.504Z,4.00
2023-01-07T06:33:45.132Z,4.00
2023-01-07T06:36:12.974Z,4.00
2023-01-07T06:38:42.535Z,4.00
2023-01-07T06:41:10.524Z,4.00
2023-01-07T06:43:38.390Z,3.90
2023-01-07T06:46:06.670Z,3.90
2023-01-07T06:48:34.622Z,3.80
2023-01-07T06:51:02.470Z,3.80
2023-01-07T06:53:30.346Z,3.70
2023-01-07T06:55:59.742Z,3.70
2023-01-07T06:58:27.603Z,3.80
2023-01-07T07:00:55.506Z,3.70
2023-01-07T07:03:23.448Z,3.60
2023-01-07T07:05:51.267Z,3.50
2023-01-07T07:08:19.108Z,3.50
2023-01-07T07:10:46.954Z,3.50
2023-01-07T07:13:16.146Z,3.30
2023-01-07T07:15:44.081Z,3.20
2023-01-07T07:18:12.007Z,3.20
2023-01-07T07:20:39.871Z,3.20
2023-01-07T07:23:07.749Z,3.20
2023-01-07T07:25:35.849Z,3.20
2023-01-07T07:28:03.863Z,3.20
2023-01-07T07:30:46.788Z,3.10
2023-01-07T07:33:18.956Z,3.10
2023-01-07T07:35:48.386Z,3.20
2023-01-07T07:38:17.641Z,3.30
2023-01-07T07:40:45.616Z,3.20
2023-01-07T07:43:13.610Z,3.20
2023-01-07T07:45:43.272Z,3.10
2023-01-07T07:48:14.142Z,3.20
2023-01-07T07:50:42.085Z,3.10
2023-01-07T07:53:11.395Z,3.20
2023-01-07T07:55:40.003Z,3.20
2023-01-07T07:58:08.115Z,3.20
2023-01-07T08:00:39.850Z,3.20
2023-01-07T08:03:09.480Z,3.20
2023-01-07T08:05:41.188Z,3.20
2023-01-07T08:08:09.362Z,3.30
2023-01-07T08:10:40.967Z,3.40
2023-01-07T08:13:09.880Z,3.50
2023-01-07T08:15:38.215Z,3.70
2023-01-07T08:18:08.328Z,3.60
2023-01-07T08:20:38.266Z,3.70
2023-01-07T08:23:07.564Z,3.80
2023-01-07T08:25:35.996Z,4.00
2023-01-07T08:28:05.432Z,3.90
2023-01-07T08:30:33.299Z,3.90
2023-01-07T08:33:02.108Z,4.00
2023-01-07T08:35:30.186Z,4.20
2023-01-07T08:38:04.894Z,4.40
2023-01-07T08:40:33.753Z,4.60
2023-01-07T08:43:02.579Z,4.90
2023-01-07T08:45:31.290Z,5.10
2023-01-07T08:47:59.655Z,5.40
2023-01-07T08:50:28.699Z,6.20
2023-01-07T08:52:56.909Z,6.70
2023-01-07T08:55:26.457Z,7.50
2023-01-07T08:57:54.564Z,8.30
2023-01-07T09:00:22.563Z,8.60
2023-01-07T09:02:50.501Z,8.60
2023-01-07T09:05:18.818Z,8.70
2023-01-07T09:07:46.744Z,8.70
2023-01-07T09:10:14.602Z,8.40
2023-01-07T09:12:43.848Z,8.70
2023-01-07T09:15:12.870Z,9.20
2023-01-07T09:17:40.831Z,9.70
2023-01-07T09:20:10.196Z,10.10
2023-01-07T09:22:38.873Z,10.70
2023-01-07T09:25:07.776Z,10.70
2023-01-07T09:27:35.936Z,10.30
2023-01-07T09:30:07.952Z,10.50
2023-01-07T09:32:36.043Z,10.50
2023-01-07T09:35:04.285Z,10.30
2023-01-07T09:37:32.275Z,9.90
2023-01-07T09:40:01.324Z,10.10
2023-01-07T09:42:38.539Z,10.70
2023-01-07T09:45:16.297Z,11.00
2023-01-07T09:47:46.898Z,12.30
2023-01-07T09:50:25.179Z,12.50
2023-01-07T09:52:57.496Z,11.90
2023-01-07T09:55:29.479Z,11.90
2023-01-07T09:57:57.441Z,11.40
2023-01-07T10:00:27.300Z,11.40
2023-01-07T10:03:11.054Z,11.30
2023-01-07T10:05:47.265Z,10.80
2023-01-07T10:08:31.238Z,10.90
2023-01-07T10:11:09.949Z,11.20
2023-01-07T10:13:54.085Z,11.20
2023-01-07T10:16:28.830Z,11.60
2023-01-07T10:19:04.494Z,11.80
2023-01-07T10:21:42.747Z,11.50
2023-01-07T10:24:20.472Z,11.50
2023-01-07T10:26:52.525Z,11.60
2023-01-07T10:29:30.561Z,11.40
2023-01-07T10:32:08.343Z,11.60
2023-01-07T10:34:44.856Z,12.20
2023-01-07T10:37:21.168Z,12.80
2023-01-07T10:39:59.358Z,12.50
2023-01-07T10:42:34.928Z,12.40
2023-01-07T10:45:20.306Z,12.80
2023-01-07T10:48:00.129Z,13.70
2023-01-07T10:50:39.556Z,13.70
2023-01-07T10:53:19.691Z,13.70
2023-01-07T10:56:01.748Z,13.90
2023-01-07T10:58:40.254Z,14.30
2023-01-07T11:01:09.929Z,14.20
2023-01-07T11:03:40.194Z,14.20
2023-01-07T11:06:12.653Z,14.00
2023-01-07T11:08:42.460Z,13.80
2023-01-07T11:11:15.481Z,13.20
2023-01-07T11:13:50.192Z,12.50
2023-01-07T11:16:24.375Z,12.50
2023-01-07T11:19:00.924Z,12.30
2023-01-07T11:21:42.963Z,12.30
2023-01-07T11:24:31.497Z,12.20
2023-01-07T11:27:13.312Z,12.00
2023-01-07T11:29:44.494Z,11.90
2023-01-07T11:32:26.188Z,12.50
2023-01-07T11:35:00.733Z,12.70
2023-01-07T11:37:34.586Z,12.50
2023-01-07T11:40:05.577Z,12.40
2023-01-07T11:42:42.326Z,12.30
2023-01-07T11:45:14.974Z,12.40
2023-01-07T11:47:49.152Z,12.30
2023-01-07T11:50:27.456Z,11.90
2023-01-07T11:53:00.556Z,12.20
2023-01-07T11:55:29.724Z,12.20
2023-01-07T11:58:27.735Z,12.50
2023-01-07T12:00:46.211Z,12.20
2023-01-07T12:03:15.189Z,12.70
2023-01-07T12:05:45.763Z,12.40
2023-01-07T12:08:21.865Z,12.10
2023-01-07T12:10:56.099Z,12.40
2023-01-07T12:13:27.339Z,12.30
2023-01-07T12:15:58.475Z,12.40
2023-01-07T12:18:43.361Z,12.40
2023-01-07T12:21:33.378Z,12.50
2023-01-07T12:24:15.657Z,12.00
2023-01-07T12:26:52.009Z,11.50
2023-01-07T12:29:29.908Z,11.10
2023-01-07T12:32:10.565Z,10.70
2023-01-07T12:34:50.448Z,10.40
2023-01-07T12:37:29.674Z,10.50
2023-01-07T12:40:18.366Z,10.60
2023-01-07T12:42:51.525Z,10.70
2023-01-07T12:45:26.045Z,10.60
2023-01-07T12:47:59.277Z,10.60
2023-01-07T12:50:30.403Z,10.60
2023-01-07T12:53:05.177Z,10.40
2023-01-07T12:55:36.764Z,10.50
2023-01-07T12:58:11.558Z,10.50
2023-01-07T13:00:48.165Z,10.60
2023-01-07T13:03:25.735Z,10.50
2023-01-07T13:05:57.544Z,10.70
2023-01-07T13:08:39.276Z,10.50
2023-01-07T13:11:19.459Z,10.70
2023-01-07T13:13:51.621Z,10.80
2023-01-07T13:16:19.616Z,10.70
2023-01-07T13:18:47.497Z,10.60
2023-01-07T13:21:17.460Z,11.00
2023-01-07T13:24:10.935Z,11.00
2023-01-07T13:26:48.705Z,11.30
2023-01-07T13:29:28.809Z,10.60
2023-01-07T13:32:15.756Z,10.80
2023-01-07T13:34:55.855Z,10.90
2023-01-07T13:37:39.578Z,10.80
2023-01-07T13:40:27.928Z,11.10
2023-01-07T13:43:05.413Z,11.40
2023-01-07T13:45:35.832Z,11.40
2023-01-07T13:48:08.894Z,11.10
2023-01-07T13:50:40.353Z,11.30
2023-01-07T13:53:28.646Z,11.30
2023-01-07T13:56:31.727Z,11.20
2023-01-07T13:59:00.549Z,11.30
2023-01-07T14:01:30.689Z,11.30
2023-01-07T14:04:02.509Z,11.30
2023-01-07T14:06:40.532Z,11.20
2023-01-07T14:09:25.899Z,11.40
2023-01-07T14:12:36.764Z,11.10
2023-01-07T14:15:43.074Z,11.20
2023-01-07T14:18:39.452Z,11.00
2023-01-07T14:21:17.630Z,10.90
2023-01-07T14:23:54.827Z,10.60
2023-01-07T14:26:30.056Z,10.50
2023-01-07T14:29:21.486Z,10.70
2023-01-07T14:31:50.835Z,10.40
2023-01-07T14:34:21.860Z,10.70
2023-01-07T14:37:17.419Z,10.70
2023-01-07T14:39:46.296Z,10.70
2023-01-07T14:42:43.093Z,10.60
2023-01-07T14:45:48.165Z,10.40
2023-01-07T14:48:44.694Z,10.50
2023-01-07T14:51:35.557Z,10.50
2023-01-07T14:54:29.073Z,10.50
2023-01-07T14:57:07.883Z,10.50
2023-01-07T15:00:04.519Z,10.40
2023-01-07T15:03:19.005Z,10.40
2023-01-07T15:05:56.541Z,10.40
2023-01-07T15:08:45.604Z,10.20
2023-01-07T15:11:40.832Z,10.00
2023-01-07T15:14:45.495Z,9.70
2023-01-07T15:17:15.237Z,9.50
2023-01-07T15:19:44.440Z,9.30
2023-01-07T15:22:37.909Z,9.10
2023-01-07T15:25:18.320Z,8.90
2023-01-07T15:27:52.933Z,8.80
2023-01-07T15:30:29.485Z,8.70
2023-01-07T15:33:05.578Z,8.50
2023-01-07T15:35:38.419Z,8.40
2023-01-07T15:38:28.795Z,8.30
2023-01-07T15:40:58.894Z,8.00
2023-01-07T15:43:29.871Z,7.80
2023-01-07T15:46:02.811Z,7.60
2023-01-07T15:48:31.156Z,7.50
2023-01-07T15:51:00.042Z,7.30
2023-01-07T15:53:31.947Z,7.20
2023-01-07T15:56:03.155Z,7.10
2023-01-07T15:58:37.180Z,7.00
2023-01-07T16:01:05.764Z,6.80
2023-01-07T16:03:37.825Z,6.70
2023-01-07T16:06:21.438Z,6.60
2023-01-07T16:08:51.267Z,6.60
2023-01-07T16:11:25.055Z,6.60
2023-01-07T16:13:57.010Z,6.50
2023-01-07T16:16:25.388Z,6.20
2023-01-07T16:18:56.779Z,6.00
2023-01-07T16:21:26.186Z,5.90
2023-01-07T16:23:55.888Z,5.80
2023-01-07T16:26:29.705Z,5.60
2023-01-07T16:29:02.997Z,5.60
2023-01-07T16:31:31.591Z,5.60
2023-01-07T16:34:02.052Z,5.70
2023-01-07T16:36:32.413Z,5.70
2023-01-07T16:39:11.569Z,5.70
2023-01-07T16:41:43.109Z,5.60
2023-01-07T16:44:57.432Z,5.60
2023-01-07T16:47:26.492Z,5.50
2023-01-07T16:49:55.610Z,5.40
2023-01-07T16:52:27.268Z,5.20
2023-01-07T16:54:56.492Z,5.30
2023-01-07T16:57:34.834Z,5.20
2023-01-07T17:00:04.191Z,5.20
2023-01-07T17:02:34.785Z,5.00
2023-01-07T17:05:18.374Z,5.00
2023-01-07T17:07:48.929Z,5.00
2023-01-07T17:10:26.075Z,4.80
2023-01-07T17:13:00.560Z,4.80
2023-01-07T17:15:35.772Z,4.80
2023-01-07T17:18:29.217Z,4.80
2023-01-07T17:20:59.563Z,4.80
2023-01-07T17:23:33.427Z,4.80
2023-01-07T17:26:05.089Z,4.70
2023-01-07T17:28:35.995Z,4.70
2023-01-07T17:31:04.784Z,4.60
2023-01-07T17:33:32.704Z,4.60
2023-01-07T17:36:00.622Z,4.60
2023-01-07T17:38:30.059Z,4.50
2023-01-07T17:40:58.106Z,4.30
2023-01-07T17:43:37.574Z,4.30
2023-01-07T17:46:07.708Z,4.30
2023-01-07T17:48:36.877Z,4.20
2023-01-07T17:51:05.324Z,4.10
2023-01-07T17:53:35.254Z,4.10
2023-01-07T17:56:03.211Z,4.20
2023-01-07T17:58:34.677Z,4.10
2023-01-07T18:01:06.585Z,4.10
2023-01-07T18:03:34.649Z,4.00
2023-01-07T18:06:03.055Z,3.70
2023-01-07T18:08:30.921Z,3.70
2023-01-07T18:11:16.480Z,3.70
2023-01-07T18:13:45.723Z,3.70
2023-01-07T18:16:15.064Z,3.70
2023-01-07T18:18:43.013Z,3.60
2023-01-07T18:21:12.813Z,3.60
2023-01-07T18:23:40.761Z,3.50
2023-01-07T18:26:09.110Z,3.50
2023-01-07T18:28:36.984Z,3.50
2023-01-07T18:31:06.536Z,3.50
2023-01-07T18:33:35.343Z,3.40
2023-01-07T18:36:03.777Z,3.30
2023-01-07T18:38:31.789Z,3.20
2023-01-07T18:40:59.693Z,3.10
2023-01-07T18:43:27.745Z,3.10
2023-01-07T18:45:55.650Z,3.20
2023-01-07T18:48:25.795Z,3.20
2023-01-07T18:50:54.098Z,3.20
2023-01-07T18:53:26.532Z,3.10
2023-01-07T18:56:01.182Z,3.10
2023-01-07T18:58:29.315Z,3.10
2023-01-07T19:01:02.385Z,3.10
2023-01-07T19:03:31.778Z,3.20
2023-01-07T19:05:59.973Z,3.10
2023-01-07T19:08:27.979Z,2.90
2023-01-07T19:10:58.964Z,2.90
2023-01-07T19:13:29.254Z,3.00
2023-01-07T19:15:57.120Z,3.00
2023-01-07T19:18:25.073Z,3.00
2023-01-07T19:20:54.327Z,3.00
2023-01-07T19:23:22.180Z,3.00
2023-01-07T19:25:58.117Z,2.90
2023-01-07T19:28:26.164Z,3.00
2023-01-07T19:30:54.628Z,3.00
2023-01-07T19:33:22.924Z,3.00
2023-01-07T19:35:50.868Z,3.00
2023-01-07T19:38:20.043Z,3.00
2023-01-07T19:40:47.927Z,3.00
2023-01-07T19:43:15.812Z,2.90
2023-01-07T19:45:54.005Z,2.90
2023-01-07T19:48:22.106Z,2.90
2023-01-07T19:50:59.994Z,2.80
2023-01-07T19:53:30.936Z,2.80
2023-01-07T19:56:00.413Z,2.70
2023-01-07T19:58:28.377Z,2.70
2023-01-07T20:00:56.534Z,2.80
2023-01-07T20:03:24.478Z,2.90
2023-01-07T20:05:52.331Z,2.90
2023-01-07T20:08:20.181Z,2.90
2023-01-07T20:10:58.774Z,2.80
2023-01-07T20:13:27.011Z,2.70
2023-01-07T20:15:55.428Z,2.60
2023-01-07T20:18:23.803Z,2.60
2023-01-07T20:20:58.075Z,2.60
2023-01-07T20:23:25.987Z,2.60
2023-01-07T20:25:54.074Z,2.60
2023-01-07T20:28:23.302Z,2.50
2023-01-07T20:30:51.197Z,2.50
2023-01-07T20:33:19.076Z,2.50
2023-01-07T20:35:47.314Z,2.40
2023-01-07T20:38:15.247Z,2.40
2023-01-07T20:40:43.794Z,2.40
2023-01-07T20:43:12.677Z,2.50
2023-01-07T20:45:41.968Z,2.50
2023-01-07T20:48:09.968Z,2.50
2023-01-07T20:53:30.373Z,2.60
2023-01-07T20:55:58.340Z,2.50
2023-01-07T20:58:26.354Z,2.50
2023-01-07T21:00:55.724Z,2.50
2023-01-07T21:03:23.690Z,2.50
2023-01-07T21:05:56.565Z,2.60
2023-01-07T21:08:24.645Z,2.60
2023-01-07T21:10:52.958Z,2.60
2023-01-07T21:13:21.152Z,2.50
2023-01-07T21:15:49.134Z,2.50
2023-01-07T21:18:18.872Z,2.50
2023-01-07T21:20:47.907Z,2.50
2023-01-07T21:23:15.844Z,2.50
2023-01-07T21:25:47.955Z,2.60
2023-01-07T21:28:16.757Z,2.60
2023-01-07T21:30:44.963Z,2.70
2023-01-07T21:33:12.871Z,2.60
2023-01-07T21:35:42.666Z,2.70
2023-01-07T21:38:11.797Z,2.70
2023-01-07T21:40:40.158Z,2.70
2023-01-07T21:43:08.075Z,2.80
2023-01-07T21:45:36.075Z,2.70
2023-01-07T21:48:04.014Z,2.70
2023-01-07T21:50:31.885Z,2.70
2023-01-07T21:53:01.105Z,2.70
2023-01-07T21:55:28.970Z,2.80
2023-01-07T21:57:56.893Z,2.80
2023-01-07T22:00:24.718Z,2.90
2023-01-07T22:02:52.713Z,2.90
2023-01-07T22:05:20.570Z,2.90
2023-01-07T22:07:50.168Z,2.90
2023-01-07T22:10:19.555Z,2.90
2023-01-07T22:12:47.421Z,2.90
2023-01-07T22:15:15.381Z,2.80
2023-01-07T22:17:43.229Z,2.90
2023-01-07T22:20:12.928Z,2.90
2023-01-07T22:22:40.765Z,2.90
2023-01-07T22:25:09.626Z,2.80
2023-01-07T22:27:38.833Z,2.70
2023-01-07T22:30:08.285Z,2.70
2023-01-07T22:32:36.182Z,2.70
2023-01-07T22:35:04.172Z,2.80
2023-01-07T22:37:32.197Z,2.80
2023-01-07T22:40:02.628Z,2.80
2023-01-07T22:42:34.476Z,2.70
2023-01-07T22:45:10.383Z,2.70
2023-01-07T22:47:41.740Z,2.70
2023-01-07T22:50:10.713Z,2.70
2023-01-07T22:52:39.285Z,2.60
2023-01-07T22:55:08.051Z,2.60
2023-01-07T22:57:37.010Z,2.50
2023-01-07T23:00:09.662Z,2.50
2023-01-07T23:02:37.540Z,2.50
2023-01-07T23:05:06.073Z,2.40
2023-01-07T23:07:33.932Z,2.20
2023-01-07T23:10:01.800Z,2.10
2023-01-07T23:12:29.727Z,2.10
2023-01-07T23:14:57.643Z,2.10
2023-01-07T23:17:26.850Z,2.20
2023-01-07T23:19:54.723Z,2.00
2023-01-07T23:22:22.577Z,1.90
2023-01-07T23:24:50.460Z,1.90
2023-01-07T23:27:18.290Z,1.90
2023-01-07T23:29:46.185Z,1.90
2023-01-07T23:32:14.053Z,1.80
2023-01-07T23:34:43.277Z,1.80
2023-01-07T23:37:11.314Z,1.80
2023-01-07T23:39:39.178Z,1.80
2023-01-07T23:42:07.143Z,1.80
2023-01-07T23:44:35.087Z,1.80
2023-01-07T23:47:03.364Z,1.90
2023-01-07T23:49:31.854Z,1.90
2023-01-07T23:52:01.370Z,1.80
2023-01-07T23:54:29.255Z,1.70
2023-01-07T23:56:57.105Z,1.50
2023-01-07T23:59:25.082Z,1.50
